createdAt,value
2018-04-17T00:00:48.128Z,11.17
2018-04-17T00:03:18.760Z,12.40
2018-04-17T00:05:53.358Z,11.83
2018-04-17T00:08:27.995Z,12.73
2018-04-17T00:11:02.708Z,11.37
2018-04-17T00:13:37.367Z,11.20
2018-04-17T00:16:12.177Z,11.67
2018-04-17T00:18:46.895Z,11.83
2018-04-17T00:21:23.185Z,12.80
2018-04-17T00:23:57.549Z,12.17
2018-04-17T00:26:32.219Z,11.97
2018-04-17T00:29:06.939Z,12.23
2018-04-17T00:31:41.800Z,13.13
2018-04-17T00:34:17.276Z,12.07
2018-04-17T00:36:51.833Z,11.80
2018-04-17T00:39:26.564Z,13.40
2018-04-17T00:42:02.011Z,12.03
2018-04-17T00:44:36.731Z,11.60
2018-04-17T00:47:11.273Z,12.33
2018-04-17T00:49:46.000Z,12.00
2018-04-17T00:52:20.858Z,12.20
2018-04-17T00:54:56.156Z,11.93
2018-04-17T00:57:30.690Z,12.37
2018-04-17T01:00:01.143Z,11.50
2018-04-17T01:02:35.518Z,13.13
2018-04-17T01:05:10.302Z,13.17
2018-04-17T01:07:45.099Z,12.37
2018-04-17T01:10:19.698Z,12.10
2018-04-17T01:12:54.342Z,14.13
2018-04-17T01:15:29.015Z,12.47
2018-04-17T01:18:03.779Z,12.40
2018-04-17T01:20:38.620Z,12.73
2018-04-17T01:23:09.968Z,13.47
2018-04-17T01:25:45.349Z,12.53
2018-04-17T01:28:19.924Z,12.80
2018-04-17T01:30:55.273Z,13.87
2018-04-17T01:33:29.994Z,13.63
2018-04-17T01:36:04.389Z,13.63
2018-04-17T01:38:38.979Z,13.10
2018-04-17T01:41:13.660Z,13.20
2018-04-17T01:43:49.012Z,13.37
2018-04-17T01:46:24.348Z,12.60
2018-04-17T01:48:59.099Z,13.00
2018-04-17T01:51:33.599Z,13.37
2018-04-17T01:54:08.500Z,14.33
2018-04-17T01:56:43.284Z,13.37
2018-04-17T01:59:17.864Z,12.87
2018-04-17T02:01:53.024Z,13.53
2018-04-17T02:04:28.450Z,12.10
2018-04-17T02:07:03.805Z,14.10
2018-04-17T02:09:38.563Z,13.30
2018-04-17T02:12:13.380Z,13.50
2018-04-17T02:14:47.893Z,13.10
2018-04-17T02:17:22.602Z,13.47
2018-04-17T02:19:57.472Z,14.33
2018-04-17T02:22:32.311Z,14.73
2018-04-17T02:25:07.801Z,14.00
2018-04-17T02:27:43.211Z,14.73
2018-04-17T02:30:18.721Z,13.50
2018-04-17T02:32:53.417Z,14.23
2018-04-17T02:35:28.582Z,13.33
2018-04-17T02:38:03.319Z,15.13
2018-04-17T02:40:39.771Z,14.27
2018-04-17T02:43:14.367Z,13.40
2018-04-17T02:45:49.849Z,13.70
2018-04-17T02:48:19.202Z,14.57
2018-04-17T02:50:53.694Z,15.50
2018-04-17T02:53:28.275Z,14.87
2018-04-17T02:56:03.900Z,17.07
2018-04-17T02:58:38.576Z,17.17
2018-04-17T03:01:13.156Z,17.07
2018-04-17T03:03:47.813Z,16.87
2018-04-17T03:06:22.507Z,15.33
2018-04-17T03:08:57.478Z,14.30
2018-04-17T03:11:32.882Z,15.00
2018-04-17T03:14:07.741Z,16.00
2018-04-17T03:16:42.435Z,15.40
2018-04-17T03:19:17.815Z,17.37
2018-04-17T03:21:52.536Z,15.90
2018-04-17T03:24:27.525Z,16.97
2018-04-17T03:27:02.116Z,15.00
2018-04-17T03:29:36.701Z,16.13
2018-04-17T03:32:11.420Z,15.20
2018-04-17T03:34:46.635Z,16.20
2018-04-17T03:37:21.264Z,16.20
2018-04-17T03:39:55.923Z,16.20
2018-04-17T03:42:30.653Z,15.10
2018-04-17T03:45:00.264Z,16.07
2018-04-17T03:47:34.843Z,15.63
2018-04-17T03:50:10.357Z,15.80
2018-04-17T03:52:44.859Z,15.03
2018-04-17T03:55:19.821Z,15.63
2018-04-17T03:57:54.608Z,15.77
2018-04-17T04:00:29.151Z,15.43
2018-04-17T04:03:04.796Z,16.53
2018-04-17T04:05:39.549Z,15.20
2018-04-17T04:08:14.151Z,16.30
2018-04-17T04:10:48.824Z,15.90
2018-04-17T04:13:23.479Z,15.90
2018-04-17T04:15:58.943Z,16.20
2018-04-17T04:18:45.628Z,14.60
2018-04-17T04:21:31.452Z,15.37
2018-04-17T04:24:17.583Z,16.40
2018-04-17T04:26:52.104Z,15.13
2018-04-17T04:29:26.749Z,16.50
2018-04-17T04:32:02.274Z,14.90
2018-04-17T04:34:36.847Z,16.67
2018-04-17T04:37:11.481Z,16.20
2018-04-17T04:39:46.839Z,16.17
2018-04-17T04:42:21.335Z,16.43
2018-04-17T04:44:56.651Z,16.00
2018-04-17T04:47:31.566Z,16.97
2018-04-17T04:50:06.315Z,15.63
2018-04-17T04:52:41.025Z,16.27
2018-04-17T04:55:15.876Z,16.40
2018-04-17T04:57:50.745Z,15.93
2018-04-17T05:00:26.057Z,15.83
2018-04-17T05:03:00.687Z,17.17
2018-04-17T05:05:35.510Z,15.80
2018-04-17T05:08:11.128Z,15.00
2018-04-17T05:10:46.488Z,14.50
2018-04-17T05:13:21.090Z,14.83
2018-04-17T05:15:55.646Z,15.20
2018-04-17T05:18:31.217Z,14.77
2018-04-17T05:21:06.818Z,15.10
2018-04-17T05:23:41.962Z,14.80
2018-04-17T05:26:17.215Z,15.33
2018-04-17T05:28:51.970Z,14.50
2018-04-17T05:31:21.049Z,15.10
2018-04-17T05:33:55.666Z,15.07
2018-04-17T05:36:30.212Z,14.70
2018-04-17T05:39:03.925Z,16.20
2018-04-17T05:41:38.607Z,13.40
2018-04-17T05:44:13.295Z,14.10
2018-04-17T05:46:48.784Z,14.30
2018-04-17T05:49:23.630Z,13.20
2018-04-17T05:51:58.228Z,13.50
2018-04-17T05:54:32.999Z,13.27
2018-04-17T05:57:07.622Z,13.20
2018-04-17T05:59:42.236Z,14.23
2018-04-17T06:02:17.404Z,14.40
2018-04-17T06:04:53.558Z,14.70
2018-04-17T06:07:28.201Z,15.03
2018-04-17T06:10:03.287Z,14.07
2018-04-17T06:12:32.605Z,13.37
2018-04-17T06:15:01.682Z,14.23
2018-04-17T06:17:31.352Z,13.83
2018-04-17T06:20:00.334Z,14.80
2018-04-17T06:22:29.457Z,13.07
2018-04-17T06:24:58.603Z,14.60
2018-04-17T06:27:27.383Z,14.10
2018-04-17T06:29:56.332Z,14.40
2018-04-17T06:32:26.030Z,14.83
2018-04-17T06:34:56.256Z,15.93
2018-04-17T06:37:31.212Z,13.90
2018-04-17T06:40:05.718Z,13.67
2018-04-17T06:42:40.423Z,14.20
2018-04-17T06:45:15.956Z,15.60
2018-04-17T06:47:50.800Z,15.10
2018-04-17T06:50:25.480Z,15.13
2018-04-17T06:53:04.069Z,15.50
2018-04-17T06:55:40.222Z,15.03
2018-04-17T06:58:14.633Z,16.30
2018-04-17T07:00:49.231Z,14.80
2018-04-17T07:03:23.819Z,16.27
2018-04-17T07:05:58.841Z,16.50
2018-04-17T07:08:33.453Z,15.67
2018-04-17T07:11:08.226Z,16.73
2018-04-17T07:13:42.805Z,16.47
2018-04-17T07:16:17.942Z,17.43
2018-04-17T07:18:52.720Z,15.60
2018-04-17T07:21:27.474Z,17.33
2018-04-17T07:24:02.093Z,16.07
2018-04-17T07:26:31.469Z,17.13
2018-04-17T07:29:00.410Z,16.37
2018-04-17T07:31:29.653Z,16.77
2018-04-17T07:33:58.582Z,18.37
2018-04-17T07:36:28.374Z,19.13
2018-04-17T07:39:02.878Z,18.43
2018-04-17T07:41:38.252Z,17.23
2018-04-17T07:44:13.707Z,17.90
2018-04-17T07:47:11.615Z,17.67
2018-04-17T07:49:46.935Z,16.67
2018-04-17T07:52:21.505Z,17.37
2018-04-17T07:54:56.214Z,18.53
2018-04-17T07:57:30.986Z,18.53
2018-04-17T08:00:06.594Z,18.10
2018-04-17T08:02:41.078Z,18.40
2018-04-17T08:05:16.256Z,18.07
2018-04-17T08:07:50.827Z,18.50
2018-04-17T08:10:25.496Z,19.70
2018-04-17T08:13:00.043Z,19.00
2018-04-17T08:15:34.859Z,18.77
2018-04-17T08:18:09.415Z,20.17
2018-04-17T08:20:44.874Z,20.50
2018-04-17T08:23:21.828Z,21.20
2018-04-17T08:25:56.404Z,20.33
2018-04-17T08:28:30.966Z,20.50
2018-04-17T08:31:05.924Z,20.10
2018-04-17T08:33:41.271Z,20.47
2018-04-17T08:36:16.042Z,21.70
2018-04-17T08:38:50.648Z,21.43
2018-04-17T08:41:25.218Z,20.97
2018-04-17T08:43:59.872Z,21.20
2018-04-17T08:46:34.585Z,22.50
2018-04-17T08:49:09.239Z,21.80
2018-04-17T08:51:44.566Z,21.00
2018-04-17T08:54:20.337Z,21.20
2018-04-17T08:56:56.680Z,19.50
2018-04-17T08:59:31.407Z,21.03
2018-04-17T09:02:06.238Z,20.30
2018-04-17T09:04:41.570Z,21.90
2018-04-17T09:07:16.094Z,22.50
2018-04-17T09:09:51.457Z,22.20
2018-04-17T09:12:26.826Z,22.20
2018-04-17T09:15:01.490Z,22.90
2018-04-17T09:17:36.960Z,24.17
2018-04-17T09:20:11.570Z,23.07
2018-04-17T09:22:46.255Z,24.70
2018-04-17T09:25:21.013Z,25.20
2018-04-17T09:27:55.667Z,25.30
2018-04-17T09:30:30.520Z,24.27
2018-04-17T09:33:05.196Z,23.93
2018-04-17T09:35:39.875Z,26.53
2018-04-17T09:38:14.705Z,22.80
2018-04-17T09:40:49.350Z,23.43
2018-04-17T09:43:24.413Z,22.60
2018-04-17T09:45:59.205Z,23.37
2018-04-17T09:48:34.501Z,23.10
2018-04-17T09:51:09.043Z,22.67
2018-04-17T09:53:43.646Z,23.30
2018-04-17T09:56:18.243Z,24.07
2018-04-17T09:58:52.909Z,22.87
2018-04-17T10:01:28.236Z,22.33
2018-04-17T10:04:03.092Z,23.20
2018-04-17T10:06:37.651Z,22.43
2018-04-17T10:09:12.250Z,21.20
2018-04-17T10:11:47.177Z,22.70
2018-04-17T10:14:22.125Z,24.30
2018-04-17T10:16:56.969Z,22.60
2018-04-17T10:19:31.773Z,23.30
2018-04-17T10:22:05.770Z,22.60
2018-04-17T10:24:40.521Z,24.27
2018-04-17T10:27:15.073Z,25.63
2018-04-17T10:29:49.850Z,24.60
2018-04-17T10:32:24.487Z,23.67
2018-04-17T10:34:59.080Z,20.70
2018-04-17T10:37:33.800Z,23.43
2018-04-17T10:40:08.238Z,24.60
2018-04-17T10:42:42.768Z,24.00
2018-04-17T10:45:17.483Z,21.03
2018-04-17T10:47:52.138Z,19.43
2018-04-17T10:50:26.721Z,19.13
2018-04-17T10:53:01.478Z,19.83
2018-04-17T10:55:36.118Z,20.10
2018-04-17T10:58:10.579Z,19.60
2018-04-17T11:00:45.227Z,20.03
2018-04-17T11:03:19.909Z,21.63
2018-04-17T11:05:54.534Z,18.93
2018-04-17T11:08:29.112Z,18.77
2018-04-17T11:11:03.800Z,18.13
2018-04-17T11:13:39.103Z,17.10
2018-04-17T11:16:14.560Z,16.60
2018-04-17T11:18:49.503Z,16.60
2018-04-17T11:21:24.244Z,17.83
2018-04-17T11:23:58.795Z,16.60
2018-04-17T11:26:33.453Z,15.70
2018-04-17T11:29:08.434Z,13.17
2018-04-17T11:31:43.152Z,15.13
2018-04-17T11:34:18.098Z,13.07
2018-04-17T11:36:52.990Z,14.27
2018-04-17T11:39:27.653Z,16.47
2018-04-17T11:42:03.161Z,16.83
2018-04-17T11:44:39.539Z,18.07
2018-04-17T11:47:14.422Z,20.13
2018-04-17T11:49:49.378Z,20.10
2018-04-17T11:52:24.157Z,18.60
2018-04-17T11:55:00.042Z,15.70
2018-04-17T11:57:34.645Z,15.13
2018-04-17T12:00:09.358Z,16.50
2018-04-17T12:02:43.940Z,15.83
2018-04-17T12:05:18.588Z,15.90
2018-04-17T12:07:52.969Z,15.20
2018-04-17T12:10:27.361Z,16.97
2018-04-17T12:13:01.666Z,15.63
2018-04-17T12:15:35.937Z,16.20
2018-04-17T12:18:10.812Z,14.87
2018-04-17T12:20:46.306Z,15.00
2018-04-17T12:23:20.979Z,13.93
2018-04-17T12:25:55.875Z,16.00
2018-04-17T12:28:31.149Z,14.23
2018-04-17T12:31:05.842Z,14.30
2018-04-17T12:33:40.509Z,15.00
2018-04-17T12:36:15.197Z,15.30
2018-04-17T12:38:50.125Z,15.30
2018-04-17T12:41:25.606Z,16.43
2018-04-17T12:44:00.195Z,16.50
2018-04-17T12:46:34.747Z,14.80
2018-04-17T12:49:10.218Z,15.20
2018-04-17T12:51:44.870Z,18.90
2018-04-17T12:54:19.544Z,17.33
2018-04-17T12:56:54.308Z,17.27
2018-04-17T12:59:29.006Z,16.07
2018-04-17T13:02:04.455Z,18.80
2018-04-17T13:04:39.216Z,17.47
2018-04-17T13:07:14.716Z,15.50
2018-04-17T13:09:49.372Z,17.80
2018-04-17T13:12:24.673Z,15.70
2018-04-17T13:14:59.333Z,13.90
2018-04-17T13:17:34.377Z,13.07
2018-04-17T13:20:09.084Z,13.10
2018-04-17T13:22:43.702Z,14.57
2018-04-17T13:25:18.884Z,14.57
2018-04-17T13:27:54.367Z,15.60
2018-04-17T13:30:28.986Z,14.70
2018-04-17T13:33:03.855Z,14.03
2018-04-17T13:35:39.598Z,15.90
2018-04-17T13:38:14.362Z,15.70
2018-04-17T13:40:49.239Z,17.00
2018-04-17T13:43:23.910Z,12.83
2018-04-17T13:45:59.192Z,12.33
2018-04-17T13:48:33.675Z,13.50
2018-04-17T13:51:07.962Z,16.60
2018-04-17T13:53:43.299Z,14.97
2018-04-17T13:56:18.119Z,14.67
2018-04-17T13:58:52.758Z,14.30
2018-04-17T14:01:27.691Z,14.70
2018-04-17T14:04:02.579Z,14.63
2018-04-17T14:06:37.291Z,15.40
2018-04-17T14:09:12.072Z,13.83
2018-04-17T14:11:46.794Z,13.60
2018-04-17T14:14:21.504Z,15.10
2018-04-17T14:16:56.166Z,15.00
2018-04-17T14:19:30.761Z,14.07
2018-04-17T14:22:05.536Z,15.37
2018-04-17T14:24:41.122Z,17.87
2018-04-17T14:27:16.655Z,15.37
2018-04-17T14:29:51.489Z,13.30
2018-04-17T14:32:26.859Z,12.40
2018-04-17T14:35:02.579Z,12.17
2018-04-17T14:37:37.378Z,11.50
2018-04-17T14:40:12.222Z,12.77
2018-04-17T14:42:46.900Z,10.20
2018-04-17T14:45:21.886Z,10.97
2018-04-17T14:47:56.467Z,12.07
2018-04-17T14:50:31.005Z,11.97
2018-04-17T14:53:05.578Z,11.67
2018-04-17T14:55:40.207Z,12.20
2018-04-17T14:58:15.570Z,12.80
2018-04-17T15:00:50.367Z,12.93
2018-04-17T15:03:25.935Z,13.83
2018-04-17T15:06:01.672Z,12.93
2018-04-17T15:08:37.113Z,12.73
2018-04-17T15:11:11.834Z,11.73
2018-04-17T15:13:46.397Z,12.33
2018-04-17T15:16:21.182Z,10.97
2018-04-17T15:18:56.654Z,12.03
2018-04-17T15:21:31.218Z,10.90
2018-04-17T15:24:06.821Z,12.40
2018-04-17T15:26:42.630Z,12.10
2018-04-17T15:29:17.145Z,9.47
2018-04-17T15:31:52.761Z,13.57
2018-04-17T15:34:27.542Z,14.33
2018-04-17T15:37:02.570Z,12.67
2018-04-17T15:39:37.238Z,12.20
2018-04-17T15:42:11.866Z,12.50
2018-04-17T15:44:46.483Z,11.30
2018-04-17T15:47:21.110Z,10.40
2018-04-17T15:49:55.771Z,11.63
2018-04-17T15:52:30.647Z,11.43
2018-04-17T15:55:05.332Z,9.10
2018-04-17T15:57:39.597Z,10.50
2018-04-17T16:00:14.322Z,9.93
2018-04-17T16:02:49.046Z,8.97
2018-04-17T16:05:23.761Z,8.63
2018-04-17T16:07:58.661Z,7.83
2018-04-17T16:10:33.650Z,8.00
2018-04-17T16:13:08.265Z,7.40
2018-04-17T16:15:43.266Z,7.73
2018-04-17T16:18:17.908Z,8.40
2018-04-17T16:20:52.570Z,9.43
2018-04-17T16:23:27.215Z,9.13
2018-04-17T16:26:02.626Z,11.13
2018-04-17T16:28:37.438Z,10.80
2018-04-17T16:31:15.570Z,10.40
2018-04-17T16:33:50.401Z,9.00
2018-04-17T16:36:25.027Z,8.63
2018-04-17T16:38:59.484Z,9.03
2018-04-17T16:41:33.870Z,8.27
2018-04-17T16:44:08.352Z,8.30
2018-04-17T16:46:42.954Z,8.60
2018-04-17T16:49:17.832Z,8.83
2018-04-17T16:51:52.621Z,7.63
2018-04-17T16:54:27.304Z,8.30
2018-04-17T16:57:02.141Z,8.37
2018-04-17T16:59:36.901Z,8.70
2018-04-17T17:02:11.745Z,9.80
2018-04-17T17:04:47.039Z,10.63
2018-04-17T17:07:21.745Z,9.57
2018-04-17T17:09:56.492Z,10.20
2018-04-17T17:12:31.165Z,10.27
2018-04-17T17:15:05.845Z,9.63
2018-04-17T17:17:40.722Z,9.83
2018-04-17T17:20:15.451Z,9.90
2018-04-17T17:22:50.146Z,9.37
2018-04-17T17:25:24.751Z,9.70
2018-04-17T17:28:00.247Z,11.23
2018-04-17T17:30:34.955Z,10.23
2018-04-17T17:33:10.092Z,10.30
2018-04-17T17:35:44.799Z,10.63
2018-04-17T17:38:19.933Z,9.63
2018-04-17T17:40:55.182Z,10.80
2018-04-17T17:43:30.371Z,10.40
2018-04-17T17:46:06.684Z,9.20
2018-04-17T17:48:41.501Z,9.40
2018-04-17T17:51:16.262Z,9.90
2018-04-17T17:53:51.010Z,11.23
2018-04-17T17:56:25.779Z,10.03
2018-04-17T17:59:00.183Z,10.40
2018-04-17T18:01:34.645Z,9.00
2018-04-17T18:04:10.183Z,9.03
2018-04-17T18:06:47.581Z,9.90
2018-04-17T18:09:22.164Z,10.37
2018-04-17T18:11:57.712Z,9.97
2018-04-17T18:14:32.460Z,9.90
2018-04-17T18:17:07.467Z,12.17
2018-04-17T18:19:42.087Z,10.10
2018-04-17T18:22:16.909Z,9.47
2018-04-17T18:24:51.762Z,10.20
2018-04-17T18:27:21.650Z,10.50
2018-04-17T18:29:52.298Z,9.70
2018-04-17T18:32:21.452Z,10.20
2018-04-17T18:34:50.418Z,11.00
2018-04-17T18:37:19.566Z,10.20
2018-04-17T18:39:48.744Z,10.20
2018-04-17T18:42:17.972Z,10.33
2018-04-17T18:44:47.106Z,11.73
2018-04-17T18:47:16.198Z,9.20
2018-04-17T18:49:46.635Z,10.40
2018-04-17T18:52:15.600Z,10.57
2018-04-17T18:54:44.829Z,10.17
2018-04-17T18:57:13.995Z,11.03
2018-04-17T18:59:43.129Z,10.13
2018-04-17T19:02:12.292Z,10.20
2018-04-17T19:04:41.412Z,10.00
2018-04-17T19:07:10.347Z,10.57
2018-04-17T19:09:39.502Z,9.90
2018-04-17T19:12:09.929Z,10.10
2018-04-17T19:14:44.615Z,10.47
2018-04-17T19:17:19.956Z,9.70
2018-04-17T19:19:54.814Z,9.70
2018-04-17T19:22:30.211Z,10.53
2018-04-17T19:25:04.989Z,10.50
2018-04-17T19:27:39.593Z,10.90
2018-04-17T19:30:14.200Z,10.77
2018-04-17T19:32:48.575Z,11.43
2018-04-17T19:35:23.261Z,11.80
2018-04-17T19:37:57.913Z,11.60
2018-04-17T19:40:33.296Z,11.00
2018-04-17T19:43:08.552Z,10.53
2018-04-17T19:45:43.963Z,11.60
2018-04-17T19:48:18.657Z,11.60
2018-04-17T19:50:54.163Z,11.27
2018-04-17T19:53:29.200Z,11.50
2018-04-17T19:56:03.708Z,11.77
2018-04-17T19:58:38.551Z,11.40
2018-04-17T20:01:13.156Z,12.20
2018-04-17T20:03:48.620Z,11.27
2018-04-17T20:06:23.400Z,11.30
2018-04-17T20:08:58.276Z,12.67
2018-04-17T20:11:33.111Z,12.20
2018-04-17T20:14:07.778Z,11.10
2018-04-17T20:16:43.180Z,12.43
2018-04-17T20:19:18.586Z,11.30
2018-04-17T20:21:53.258Z,10.60
2018-04-17T20:24:27.684Z,11.70
2018-04-17T20:27:02.186Z,12.83
2018-04-17T20:29:36.904Z,11.83
2018-04-17T20:32:15.329Z,12.97
2018-04-17T20:34:50.032Z,13.23
2018-04-17T20:37:24.665Z,12.90
2018-04-17T20:39:59.061Z,13.70
2018-04-17T20:42:33.935Z,12.60
2018-04-17T20:45:08.311Z,12.70
2018-04-17T20:47:42.948Z,12.77
2018-04-17T20:50:18.171Z,11.90
2018-04-17T20:52:52.618Z,14.00
2018-04-17T20:55:26.940Z,13.10
2018-04-17T20:58:01.347Z,13.37
2018-04-17T21:00:36.082Z,13.20
2018-04-17T21:03:10.687Z,12.47
2018-04-17T21:05:45.186Z,12.83
2018-04-17T21:08:19.553Z,12.33
2018-04-17T21:10:53.946Z,12.60
2018-04-17T21:13:28.529Z,12.80
2018-04-17T21:16:03.237Z,12.20
2018-04-17T21:18:37.727Z,12.30
2018-04-17T21:21:12.198Z,14.27
2018-04-17T21:23:46.757Z,14.50
2018-04-17T21:26:21.486Z,13.40
2018-04-17T21:28:56.426Z,13.80
2018-04-17T21:31:31.039Z,13.30
2018-04-17T21:34:05.601Z,12.97
2018-04-17T21:36:40.294Z,13.17
2018-04-17T21:39:15.712Z,14.30
2018-04-17T21:41:51.121Z,13.87
2018-04-17T21:44:25.977Z,13.47
2018-04-17T21:47:00.581Z,13.70
2018-04-17T21:49:35.352Z,13.43
2018-04-17T21:52:10.351Z,14.30
2018-04-17T21:54:45.199Z,13.33
2018-04-17T21:57:19.861Z,13.30
2018-04-17T21:59:54.803Z,14.37
2018-04-17T22:02:29.483Z,13.47
2018-04-17T22:05:04.168Z,14.40
2018-04-17T22:07:38.829Z,13.33
2018-04-17T22:10:13.581Z,13.40
2018-04-17T22:12:48.517Z,13.80
2018-04-17T22:15:23.255Z,15.20
2018-04-17T22:17:57.870Z,15.20
2018-04-17T22:20:32.324Z,15.10
2018-04-17T22:23:06.799Z,14.90
2018-04-17T22:25:41.585Z,15.40
2018-04-17T22:28:16.123Z,15.60
2018-04-17T22:30:50.716Z,15.70
2018-04-17T22:33:25.290Z,14.97
2018-04-17T22:36:01.017Z,16.33
2018-04-17T22:38:36.543Z,14.40
2018-04-17T22:41:11.400Z,14.73
2018-04-17T22:43:45.713Z,16.13
2018-04-17T22:46:20.118Z,15.67
2018-04-17T22:48:54.519Z,15.50
2018-04-17T22:51:28.980Z,16.00
2018-04-17T22:54:04.175Z,16.00
2018-04-17T22:56:38.497Z,15.50
2018-04-17T22:59:12.824Z,16.20
2018-04-17T23:01:47.348Z,16.17
2018-04-17T23:04:21.951Z,15.20
2018-04-17T23:06:56.484Z,16.00
2018-04-17T23:09:31.823Z,15.73
2018-04-17T23:12:06.362Z,15.23
2018-04-17T23:14:41.023Z,15.47
2018-04-17T23:17:15.841Z,16.70
2018-04-17T23:19:51.260Z,17.00
2018-04-17T23:22:26.672Z,16.00
2018-04-17T23:25:01.389Z,14.50
2018-04-17T23:27:36.137Z,14.57
2018-04-17T23:30:10.773Z,15.53
2018-04-17T23:32:45.513Z,15.93
2018-04-17T23:35:20.823Z,16.43
2018-04-17T23:37:55.686Z,15.97
2018-04-17T23:40:30.282Z,15.20
2018-04-17T23:43:04.985Z,15.70
2018-04-17T23:45:40.027Z,17.20
2018-04-17T23:48:15.429Z,15.60
2018-04-17T23:50:50.244Z,16.53
2018-04-17T23:53:25.547Z,16.17
2018-04-17T23:56:00.276Z,16.30
2018-04-17T23:58:35.824Z,16.20
